sensor_id;sensor_type;location;lat;lon;timestamp;P1;durP1;ratioP1;P2;durP2;ratioP2
2896;SDS011;1458;49.728;9.228;2023-05-19T00:00:02;0.90;;;0.90;;
2896;SDS011;1458;49.728;9.228;2023-05-19T00:02:36;0.90;;;0.90;;
2896;SDS011;1458;49.728;9.228;2023-05-19T00:05:05;0.90;;;0.90;;
2896;SDS011;1458;49.728;9.228;2023-05-19T00:07:34;0.87;;;0.87;;
2896;SDS011;1458;49.728;9.228;2023-05-19T00:10:05;0.80;;;0.80;;
2896;SDS011;1458;49.728;9.228;2023-05-19T00:12:34;0.70;;;0.70;;
2896;SDS011;1458;49.728;9.228;2023-05-19T00:15:04;0.70;;;0.70;;
2896;SDS011;1458;49.728;9.228;2023-05-19T00:17:33;0.70;;;0.70;;
2896;SDS011;1458;49.728;9.228;2023-05-19T00:20:02;0.80;;;0.80;;
2896;SDS011;1458;49.728;9.228;2023-05-19T00:22:32;0.80;;;0.80;;
2896;SDS011;1458;49.728;9.228;2023-05-19T00:25:01;0.73;;;0.73;;
2896;SDS011;1458;49.728;9.228;2023-05-19T00:27:28;0.70;;;0.70;;
2896;SDS011;1458;49.728;9.228;2023-05-19T00:29:56;0.70;;;0.70;;
2896;SDS011;1458;49.728;9.228;2023-05-19T00:32:24;0.70;;;0.70;;
2896;SDS011;1458;49.728;9.228;2023-05-19T00:34:52;0.80;;;0.80;;
2896;SDS011;1458;49.728;9.228;2023-05-19T00:37:19;0.80;;;0.80;;
2896;SDS011;1458;49.728;9.228;2023-05-19T00:39:47;0.90;;;0.90;;
2896;SDS011;1458;49.728;9.228;2023-05-19T00:42:15;0.70;;;0.70;;
2896;SDS011;1458;49.728;9.228;2023-05-19T00:44:42;0.60;;;0.60;;
2896;SDS011;1458;49.728;9.228;2023-05-19T00:47:09;0.67;;;0.67;;
2896;SDS011;1458;49.728;9.228;2023-05-19T00:49:38;0.70;;;0.70;;
2896;SDS011;1458;49.728;9.228;2023-05-19T00:52:06;0.60;;;0.60;;
2896;SDS011;1458;49.728;9.228;2023-05-19T00:54:34;0.53;;;0.53;;
2896;SDS011;1458;49.728;9.228;2023-05-19T00:57:02;0.60;;;0.60;;
2896;SDS011;1458;49.728;9.228;2023-05-19T00:59:30;0.57;;;0.57;;
2896;SDS011;1458;49.728;9.228;2023-05-19T01:01:58;0.50;;;0.50;;
2896;SDS011;1458;49.728;9.228;2023-05-19T01:04:27;0.50;;;0.50;;
2896;SDS011;1458;49.728;9.228;2023-05-19T01:07:00;0.60;;;0.60;;
2896;SDS011;1458;49.728;9.228;2023-05-19T01:09:28;0.50;;;0.50;;
2896;SDS011;1458;49.728;9.228;2023-05-19T01:11:56;0.50;;;0.50;;
2896;SDS011;1458;49.728;9.228;2023-05-19T01:14:24;0.50;;;0.50;;
2896;SDS011;1458;49.728;9.228;2023-05-19T01:16:53;0.50;;;0.50;;
2896;SDS011;1458;49.728;9.228;2023-05-19T01:19:42;0.60;;;0.60;;
2896;SDS011;1458;49.728;9.228;2023-05-19T01:26:07;0.50;;;0.50;;
2896;SDS011;1458;49.728;9.228;2023-05-19T01:28:52;0.50;;;0.50;;
2896;SDS011;1458;49.728;9.228;2023-05-19T01:31:43;0.53;;;0.53;;
2896;SDS011;1458;49.728;9.228;2023-05-19T01:34:15;0.60;;;0.60;;
2896;SDS011;1458;49.728;9.228;2023-05-19T01:36:44;0.50;;;0.50;;
2896;SDS011;1458;49.728;9.228;2023-05-19T01:39:14;0.53;;;0.53;;
2896;SDS011;1458;49.728;9.228;2023-05-19T01:41:42;0.60;;;0.60;;
2896;SDS011;1458;49.728;9.228;2023-05-19T01:44:11;0.60;;;0.60;;
2896;SDS011;1458;49.728;9.228;2023-05-19T01:46:40;0.50;;;0.50;;
2896;SDS011;1458;49.728;9.228;2023-05-19T01:49:10;0.50;;;0.50;;
2896;SDS011;1458;49.728;9.228;2023-05-19T01:51:39;0.60;;;0.60;;
2896;SDS011;1458;49.728;9.228;2023-05-19T01:54:07;0.60;;;0.60;;
2896;SDS011;1458;49.728;9.228;2023-05-19T01:56:37;0.50;;;0.50;;
2896;SDS011;1458;49.728;9.228;2023-05-19T01:59:23;0.60;;;0.60;;
2896;SDS011;1458;49.728;9.228;2023-05-19T02:02:06;0.50;;;0.50;;
2896;SDS011;1458;49.728;9.228;2023-05-19T02:04:44;0.50;;;0.50;;
2896;SDS011;1458;49.728;9.228;2023-05-19T02:07:23;0.50;;;0.50;;
2896;SDS011;1458;49.728;9.228;2023-05-19T02:09:59;0.50;;;0.50;;
2896;SDS011;1458;49.728;9.228;2023-05-19T02:12:34;0.40;;;0.40;;
2896;SDS011;1458;49.728;9.228;2023-05-19T02:15:05;0.50;;;0.50;;
2896;SDS011;1458;49.728;9.228;2023-05-19T02:17:39;0.40;;;0.40;;
2896;SDS011;1458;49.728;9.228;2023-05-19T02:20:11;0.40;;;0.40;;
2896;SDS011;1458;49.728;9.228;2023-05-19T02:22:39;0.50;;;0.50;;
2896;SDS011;1458;49.728;9.228;2023-05-19T02:25:07;0.40;;;0.40;;
2896;SDS011;1458;49.728;9.228;2023-05-19T02:27:36;0.40;;;0.40;;
2896;SDS011;1458;49.728;9.228;2023-05-19T02:30:08;0.40;;;0.40;;
2896;SDS011;1458;49.728;9.228;2023-05-19T02:32:36;0.40;;;0.40;;
2896;SDS011;1458;49.728;9.228;2023-05-19T02:35:05;0.40;;;0.40;;
2896;SDS011;1458;49.728;9.228;2023-05-19T02:37:34;0.40;;;0.40;;
2896;SDS011;1458;49.728;9.228;2023-05-19T02:40:01;0.50;;;0.50;;
2896;SDS011;1458;49.728;9.228;2023-05-19T02:42:29;0.50;;;0.50;;
2896;SDS011;1458;49.728;9.228;2023-05-19T02:44:57;0.50;;;0.50;;
2896;SDS011;1458;49.728;9.228;2023-05-19T02:47:25;0.50;;;0.50;;
2896;SDS011;1458;49.728;9.228;2023-05-19T02:49:54;0.50;;;0.50;;
2896;SDS011;1458;49.728;9.228;2023-05-19T02:52:21;0.50;;;0.50;;
2896;SDS011;1458;49.728;9.228;2023-05-19T02:54:49;0.50;;;0.50;;
2896;SDS011;1458;49.728;9.228;2023-05-19T02:57:16;0.50;;;0.50;;
2896;SDS011;1458;49.728;9.228;2023-05-19T02:59:44;0.47;;;0.47;;
2896;SDS011;1458;49.728;9.228;2023-05-19T03:02:11;0.50;;;0.50;;
2896;SDS011;1458;49.728;9.228;2023-05-19T03:04:39;0.53;;;0.53;;
2896;SDS011;1458;49.728;9.228;2023-05-19T03:07:08;0.50;;;0.50;;
2896;SDS011;1458;49.728;9.228;2023-05-19T03:09:38;0.57;;;0.57;;
2896;SDS011;1458;49.728;9.228;2023-05-19T03:12:05;0.50;;;0.50;;
2896;SDS011;1458;49.728;9.228;2023-05-19T03:14:34;0.50;;;0.50;;
2896;SDS011;1458;49.728;9.228;2023-05-19T03:17:03;0.50;;;0.50;;
2896;SDS011;1458;49.728;9.228;2023-05-19T03:19:32;0.50;;;0.50;;
2896;SDS011;1458;49.728;9.228;2023-05-19T03:21:59;0.50;;;0.50;;
2896;SDS011;1458;49.728;9.228;2023-05-19T03:24:29;0.50;;;0.50;;
2896;SDS011;1458;49.728;9.228;2023-05-19T03:26:57;0.50;;;0.50;;
2896;SDS011;1458;49.728;9.228;2023-05-19T03:29:24;0.50;;;0.50;;
2896;SDS011;1458;49.728;9.228;2023-05-19T03:31:52;0.60;;;0.60;;
2896;SDS011;1458;49.728;9.228;2023-05-19T03:34:20;0.50;;;0.50;;
2896;SDS011;1458;49.728;9.228;2023-05-19T03:36:48;0.50;;;0.50;;
2896;SDS011;1458;49.728;9.228;2023-05-19T03:39:16;0.43;;;0.43;;
2896;SDS011;1458;49.728;9.228;2023-05-19T03:41:47;0.40;;;0.40;;
2896;SDS011;1458;49.728;9.228;2023-05-19T03:44:15;0.50;;;0.50;;
2896;SDS011;1458;49.728;9.228;2023-05-19T03:46:43;0.50;;;0.50;;
2896;SDS011;1458;49.728;9.228;2023-05-19T03:49:39;0.40;;;0.40;;
2896;SDS011;1458;49.728;9.228;2023-05-19T03:52:38;0.40;;;0.40;;
2896;SDS011;1458;49.728;9.228;2023-05-19T03:55:28;0.50;;;0.50;;
2896;SDS011;1458;49.728;9.228;2023-05-19T03:57:57;0.40;;;0.40;;
2896;SDS011;1458;49.728;9.228;2023-05-19T04:00:24;0.40;;;0.40;;
2896;SDS011;1458;49.728;9.228;2023-05-19T04:02:51;0.50;;;0.50;;
2896;SDS011;1458;49.728;9.228;2023-05-19T04:05:19;0.40;;;0.40;;
2896;SDS011;1458;49.728;9.228;2023-05-19T04:07:46;0.40;;;0.40;;
2896;SDS011;1458;49.728;9.228;2023-05-19T04:10:14;0.40;;;0.40;;
2896;SDS011;1458;49.728;9.228;2023-05-19T04:12:41;0.50;;;0.50;;
2896;SDS011;1458;49.728;9.228;2023-05-19T04:15:10;0.40;;;0.40;;
2896;SDS011;1458;49.728;9.228;2023-05-19T04:17:39;0.47;;;0.47;;
2896;SDS011;1458;49.728;9.228;2023-05-19T04:20:06;0.40;;;0.40;;
2896;SDS011;1458;49.728;9.228;2023-05-19T04:22:35;0.40;;;0.40;;
2896;SDS011;1458;49.728;9.228;2023-05-19T04:25:02;0.43;;;0.43;;
2896;SDS011;1458;49.728;9.228;2023-05-19T04:27:31;0.50;;;0.50;;
2896;SDS011;1458;49.728;9.228;2023-05-19T04:30:01;0.40;;;0.40;;
2896;SDS011;1458;49.728;9.228;2023-05-19T04:32:31;0.53;;;0.53;;
2896;SDS011;1458;49.728;9.228;2023-05-19T04:34:58;0.50;;;0.50;;
2896;SDS011;1458;49.728;9.228;2023-05-19T04:37:27;0.40;;;0.40;;
2896;SDS011;1458;49.728;9.228;2023-05-19T04:39:55;0.50;;;0.50;;
2896;SDS011;1458;49.728;9.228;2023-05-19T04:42:24;0.40;;;0.40;;
2896;SDS011;1458;49.728;9.228;2023-05-19T04:44:55;0.50;;;0.50;;
2896;SDS011;1458;49.728;9.228;2023-05-19T04:47:26;0.50;;;0.50;;
2896;SDS011;1458;49.728;9.228;2023-05-19T04:49:56;0.63;;;0.63;;
2896;SDS011;1458;49.728;9.228;2023-05-19T04:52:25;0.50;;;0.50;;
2896;SDS011;1458;49.728;9.228;2023-05-19T04:54:52;0.50;;;0.50;;
2896;SDS011;1458;49.728;9.228;2023-05-19T04:57:23;0.40;;;0.40;;
2896;SDS011;1458;49.728;9.228;2023-05-19T04:59:51;0.50;;;0.50;;
2896;SDS011;1458;49.728;9.228;2023-05-19T05:02:24;0.60;;;0.60;;
2896;SDS011;1458;49.728;9.228;2023-05-19T05:04:52;0.50;;;0.50;;
2896;SDS011;1458;49.728;9.228;2023-05-19T05:07:22;0.60;;;0.60;;
2896;SDS011;1458;49.728;9.228;2023-05-19T05:09:51;0.70;;;0.70;;
2896;SDS011;1458;49.728;9.228;2023-05-19T05:12:19;0.70;;;0.70;;
2896;SDS011;1458;49.728;9.228;2023-05-19T05:14:47;0.60;;;0.60;;
2896;SDS011;1458;49.728;9.228;2023-05-19T05:17:16;0.70;;;0.70;;
2896;SDS011;1458;49.728;9.228;2023-05-19T05:19:44;0.80;;;0.80;;
2896;SDS011;1458;49.728;9.228;2023-05-19T05:22:13;0.90;;;0.90;;
2896;SDS011;1458;49.728;9.228;2023-05-19T05:24:43;0.90;;;0.90;;
2896;SDS011;1458;49.728;9.228;2023-05-19T05:27:11;1.00;;;1.00;;
2896;SDS011;1458;49.728;9.228;2023-05-19T05:29:39;1.30;;;1.30;;
2896;SDS011;1458;49.728;9.228;2023-05-19T05:32:08;1.43;;;1.43;;
2896;SDS011;1458;49.728;9.228;2023-05-19T05:34:36;1.30;;;1.30;;
2896;SDS011;1458;49.728;9.228;2023-05-19T05:37:05;1.30;;;1.30;;
2896;SDS011;1458;49.728;9.228;2023-05-19T05:39:33;1.40;;;1.40;;
2896;SDS011;1458;49.728;9.228;2023-05-19T05:42:02;1.50;;;1.50;;
2896;SDS011;1458;49.728;9.228;2023-05-19T05:44:30;1.60;;;1.60;;
2896;SDS011;1458;49.728;9.228;2023-05-19T05:47:00;1.30;;;1.30;;
2896;SDS011;1458;49.728;9.228;2023-05-19T05:49:29;1.53;;;1.53;;
2896;SDS011;1458;49.728;9.228;2023-05-19T05:51:57;1.53;;;1.53;;
2896;SDS011;1458;49.728;9.228;2023-05-19T05:54:25;1.30;;;1.30;;
2896;SDS011;1458;49.728;9.228;2023-05-19T05:56:54;1.50;;;1.50;;
2896;SDS011;1458;49.728;9.228;2023-05-19T05:59:24;1.60;;;1.60;;
2896;SDS011;1458;49.728;9.228;2023-05-19T06:01:52;1.47;;;1.47;;
2896;SDS011;1458;49.728;9.228;2023-05-19T06:04:19;1.70;;;1.70;;
2896;SDS011;1458;49.728;9.228;2023-05-19T06:06:47;1.80;;;1.80;;
2896;SDS011;1458;49.728;9.228;2023-05-19T06:09:20;1.90;;;1.90;;
2896;SDS011;1458;49.728;9.228;2023-05-19T06:11:49;1.90;;;1.90;;
2896;SDS011;1458;49.728;9.228;2023-05-19T06:14:17;1.93;;;1.93;;
2896;SDS011;1458;49.728;9.228;2023-05-19T06:17:15;2.10;;;2.10;;
2896;SDS011;1458;49.728;9.228;2023-05-19T06:19:42;2.20;;;2.20;;
2896;SDS011;1458;49.728;9.228;2023-05-19T06:22:10;2.50;;;2.50;;
2896;SDS011;1458;49.728;9.228;2023-05-19T06:24:37;2.80;;;2.80;;
2896;SDS011;1458;49.728;9.228;2023-05-19T06:27:07;2.90;;;2.90;;
2896;SDS011;1458;49.728;9.228;2023-05-19T06:29:34;3.13;;;3.13;;
2896;SDS011;1458;49.728;9.228;2023-05-19T06:32:05;3.20;;;3.20;;
2896;SDS011;1458;49.728;9.228;2023-05-19T06:34:34;3.40;;;3.40;;
2896;SDS011;1458;49.728;9.228;2023-05-19T06:37:04;3.97;;;3.97;;
2896;SDS011;1458;49.728;9.228;2023-05-19T06:39:32;3.70;;;3.70;;
2896;SDS011;1458;49.728;9.228;2023-05-19T06:42:00;4.80;;;4.80;;
2896;SDS011;1458;49.728;9.228;2023-05-19T06:44:54;4.40;;;4.40;;
2896;SDS011;1458;49.728;9.228;2023-05-19T06:47:21;4.70;;;4.70;;
2896;SDS011;1458;49.728;9.228;2023-05-19T06:49:51;5.07;;;5.07;;
2896;SDS011;1458;49.728;9.228;2023-05-19T06:52:22;5.07;;;5.07;;
2896;SDS011;1458;49.728;9.228;2023-05-19T06:54:50;5.10;;;5.10;;
2896;SDS011;1458;49.728;9.228;2023-05-19T06:57:18;5.20;;;5.20;;
2896;SDS011;1458;49.728;9.228;2023-05-19T06:59:45;5.23;;;5.23;;
2896;SDS011;1458;49.728;9.228;2023-05-19T07:02:13;5.20;;;5.20;;
2896;SDS011;1458;49.728;9.228;2023-05-19T07:04:41;5.30;;;5.30;;
2896;SDS011;1458;49.728;9.228;2023-05-19T07:07:12;5.40;;;5.40;;
2896;SDS011;1458;49.728;9.228;2023-05-19T07:09:40;6.30;;;6.30;;
2896;SDS011;1458;49.728;9.228;2023-05-19T07:12:08;5.90;;;5.90;;
2896;SDS011;1458;49.728;9.228;2023-05-19T07:14:35;6.33;;;6.33;;
2896;SDS011;1458;49.728;9.228;2023-05-19T07:17:03;6.23;;;6.23;;
2896;SDS011;1458;49.728;9.228;2023-05-19T07:19:32;6.20;;;6.20;;
2896;SDS011;1458;49.728;9.228;2023-05-19T07:21:59;6.30;;;6.30;;
2896;SDS011;1458;49.728;9.228;2023-05-19T07:24:28;6.20;;;6.20;;
2896;SDS011;1458;49.728;9.228;2023-05-19T07:26:56;6.80;;;6.70;;
2896;SDS011;1458;49.728;9.228;2023-05-19T07:29:32;6.70;;;6.60;;
2896;SDS011;1458;49.728;9.228;2023-05-19T07:32:00;6.90;;;6.80;;
2896;SDS011;1458;49.728;9.228;2023-05-19T07:34:27;7.50;;;7.40;;
2896;SDS011;1458;49.728;9.228;2023-05-19T07:36:55;9.10;;;8.90;;
2896;SDS011;1458;49.728;9.228;2023-05-19T07:39:22;9.03;;;8.83;;
2896;SDS011;1458;49.728;9.228;2023-05-19T07:41:55;9.20;;;9.00;;
2896;SDS011;1458;49.728;9.228;2023-05-19T07:44:23;9.40;;;9.20;;
2896;SDS011;1458;49.728;9.228;2023-05-19T07:46:51;10.00;;;9.80;;
2896;SDS011;1458;49.728;9.228;2023-05-19T07:49:18;9.90;;;9.70;;
2896;SDS011;1458;49.728;9.228;2023-05-19T07:51:46;10.70;;;10.40;;
2896;SDS011;1458;49.728;9.228;2023-05-19T07:54:13;10.70;;;10.43;;
2896;SDS011;1458;49.728;9.228;2023-05-19T07:56:41;11.10;;;10.80;;
2896;SDS011;1458;49.728;9.228;2023-05-19T07:59:09;11.50;;;11.20;;
2896;SDS011;1458;49.728;9.228;2023-05-19T08:01:37;11.40;;;11.10;;
2896;SDS011;1458;49.728;9.228;2023-05-19T08:04:05;11.40;;;11.10;;
2896;SDS011;1458;49.728;9.228;2023-05-19T08:06:32;11.70;;;11.40;;
2896;SDS011;1458;49.728;9.228;2023-05-19T08:08:59;11.80;;;11.50;;
2896;SDS011;1458;49.728;9.228;2023-05-19T08:11:28;11.50;;;11.20;;
2896;SDS011;1458;49.728;9.228;2023-05-19T08:13:55;12.10;;;11.80;;
2896;SDS011;1458;49.728;9.228;2023-05-19T08:16:24;11.80;;;11.50;;
2896;SDS011;1458;49.728;9.228;2023-05-19T08:18:52;11.50;;;11.20;;
2896;SDS011;1458;49.728;9.228;2023-05-19T08:21:20;11.57;;;11.27;;
2896;SDS011;1458;49.728;9.228;2023-05-19T08:23:48;11.60;;;11.30;;
2896;SDS011;1458;49.728;9.228;2023-05-19T08:26:16;11.60;;;11.30;;
2896;SDS011;1458;49.728;9.228;2023-05-19T08:28:43;11.50;;;11.20;;
2896;SDS011;1458;49.728;9.228;2023-05-19T08:31:11;11.57;;;11.27;;
2896;SDS011;1458;49.728;9.228;2023-05-19T08:33:39;11.50;;;11.20;;
2896;SDS011;1458;49.728;9.228;2023-05-19T08:36:07;11.40;;;11.10;;
2896;SDS011;1458;49.728;9.228;2023-05-19T08:38:34;11.70;;;11.40;;
2896;SDS011;1458;49.728;9.228;2023-05-19T08:41:03;11.73;;;11.43;;
2896;SDS011;1458;49.728;9.228;2023-05-19T08:43:30;12.17;;;11.87;;
2896;SDS011;1458;49.728;9.228;2023-05-19T08:45:58;11.60;;;11.30;;
2896;SDS011;1458;49.728;9.228;2023-05-19T08:48:26;11.40;;;11.10;;
2896;SDS011;1458;49.728;9.228;2023-05-19T08:51:01;11.43;;;11.13;;
2896;SDS011;1458;49.728;9.228;2023-05-19T08:53:39;11.97;;;11.67;;
2896;SDS011;1458;49.728;9.228;2023-05-19T08:56:11;11.57;;;11.27;;
2896;SDS011;1458;49.728;9.228;2023-05-19T08:58:43;11.70;;;11.40;;
2896;SDS011;1458;49.728;9.228;2023-05-19T09:01:13;12.20;;;11.90;;
2896;SDS011;1458;49.728;9.228;2023-05-19T09:03:41;11.97;;;11.67;;
2896;SDS011;1458;49.728;9.228;2023-05-19T09:06:11;12.00;;;11.70;;
2896;SDS011;1458;49.728;9.228;2023-05-19T09:08:39;12.00;;;11.70;;
2896;SDS011;1458;49.728;9.228;2023-05-19T09:11:07;11.70;;;11.40;;
2896;SDS011;1458;49.728;9.228;2023-05-19T09:13:35;12.00;;;11.70;;
2896;SDS011;1458;49.728;9.228;2023-05-19T09:16:03;12.40;;;12.00;;
2896;SDS011;1458;49.728;9.228;2023-05-19T09:18:32;12.13;;;11.83;;
2896;SDS011;1458;49.728;9.228;2023-05-19T09:21:00;12.00;;;11.70;;
2896;SDS011;1458;49.728;9.228;2023-05-19T09:23:29;11.77;;;11.47;;
2896;SDS011;1458;49.728;9.228;2023-05-19T09:26:00;12.20;;;11.90;;
2896;SDS011;1458;49.728;9.228;2023-05-19T09:28:29;12.10;;;11.80;;
2896;SDS011;1458;49.728;9.228;2023-05-19T09:30:59;12.80;;;12.40;;
2896;SDS011;1458;49.728;9.228;2023-05-19T09:33:27;12.20;;;11.90;;
2896;SDS011;1458;49.728;9.228;2023-05-19T09:35:55;12.40;;;12.00;;
2896;SDS011;1458;49.728;9.228;2023-05-19T09:38:23;12.00;;;11.70;;
2896;SDS011;1458;49.728;9.228;2023-05-19T09:40:54;11.90;;;11.60;;
2896;SDS011;1458;49.728;9.228;2023-05-19T09:43:23;12.60;;;12.20;;
2896;SDS011;1458;49.728;9.228;2023-05-19T09:45:53;12.60;;;12.20;;
2896;SDS011;1458;49.728;9.228;2023-05-19T09:48:24;12.93;;;12.53;;
2896;SDS011;1458;49.728;9.228;2023-05-19T09:50:52;12.23;;;11.90;;
2896;SDS011;1458;49.728;9.228;2023-05-19T09:53:21;12.10;;;11.80;;
2896;SDS011;1458;49.728;9.228;2023-05-19T09:55:49;12.13;;;11.83;;
2896;SDS011;1458;49.728;9.228;2023-05-19T09:58:23;12.70;;;12.30;;
2896;SDS011;1458;49.728;9.228;2023-05-19T10:00:51;12.17;;;11.87;;
2896;SDS011;1458;49.728;9.228;2023-05-19T10:03:19;12.07;;;11.77;;
2896;SDS011;1458;49.728;9.228;2023-05-19T10:05:48;12.50;;;12.10;;
2896;SDS011;1458;49.728;9.228;2023-05-19T10:08:16;12.80;;;12.40;;
2896;SDS011;1458;49.728;9.228;2023-05-19T10:10:44;12.00;;;11.70;;
2896;SDS011;1458;49.728;9.228;2023-05-19T10:13:14;12.57;;;12.17;;
2896;SDS011;1458;49.728;9.228;2023-05-19T10:15:42;12.00;;;11.70;;
2896;SDS011;1458;49.728;9.228;2023-05-19T10:18:10;12.20;;;11.90;;
2896;SDS011;1458;49.728;9.228;2023-05-19T10:20:39;12.77;;;12.37;;
2896;SDS011;1458;49.728;9.228;2023-05-19T10:23:08;12.30;;;11.90;;
2896;SDS011;1458;49.728;9.228;2023-05-19T10:25:35;12.37;;;12.00;;
2896;SDS011;1458;49.728;9.228;2023-05-19T10:28:06;12.83;;;12.43;;
2896;SDS011;1458;49.728;9.228;2023-05-19T10:30:45;12.30;;;12.00;;
2896;SDS011;1458;49.728;9.228;2023-05-19T10:33:16;13.03;;;12.63;;
2896;SDS011;1458;49.728;9.228;2023-05-19T10:35:53;12.40;;;12.00;;
2896;SDS011;1458;49.728;9.228;2023-05-19T10:38:38;13.00;;;12.60;;
2896;SDS011;1458;49.728;9.228;2023-05-19T10:41:11;12.73;;;12.33;;
2896;SDS011;1458;49.728;9.228;2023-05-19T10:43:54;13.33;;;12.93;;
2896;SDS011;1458;49.728;9.228;2023-05-19T10:46:35;13.40;;;13.00;;
2896;SDS011;1458;49.728;9.228;2023-05-19T10:49:06;13.37;;;12.97;;
2896;SDS011;1458;49.728;9.228;2023-05-19T10:51:33;13.00;;;12.60;;
2896;SDS011;1458;49.728;9.228;2023-05-19T10:54:01;12.70;;;12.30;;
2896;SDS011;1458;49.728;9.228;2023-05-19T10:56:30;13.40;;;13.00;;
2896;SDS011;1458;49.728;9.228;2023-05-19T10:59:02;13.20;;;12.80;;
2896;SDS011;1458;49.728;9.228;2023-05-19T11:01:30;13.37;;;12.97;;
2896;SDS011;1458;49.728;9.228;2023-05-19T11:04:03;13.93;;;13.53;;
2896;SDS011;1458;49.728;9.228;2023-05-19T11:06:32;13.40;;;13.00;;
2896;SDS011;1458;49.728;9.228;2023-05-19T11:09:08;12.93;;;12.53;;
2896;SDS011;1458;49.728;9.228;2023-05-19T11:11:43;13.37;;;12.97;;
2896;SDS011;1458;49.728;9.228;2023-05-19T11:14:14;13.00;;;12.60;;
2896;SDS011;1458;49.728;9.228;2023-05-19T11:16:45;13.73;;;13.33;;
2896;SDS011;1458;49.728;9.228;2023-05-19T11:19:17;12.90;;;12.50;;
2896;SDS011;1458;49.728;9.228;2023-05-19T11:21:46;12.70;;;12.30;;
2896;SDS011;1458;49.728;9.228;2023-05-19T11:27:18;13.47;;;13.07;;
2896;SDS011;1458;49.728;9.228;2023-05-19T11:29:48;13.10;;;12.70;;
2896;SDS011;1458;49.728;9.228;2023-05-19T11:32:17;13.30;;;12.90;;
2896;SDS011;1458;49.728;9.228;2023-05-19T11:34:46;12.77;;;12.37;;
2896;SDS011;1458;49.728;9.228;2023-05-19T11:37:14;12.70;;;12.30;;
2896;SDS011;1458;49.728;9.228;2023-05-19T11:39:44;12.63;;;12.23;;
2896;SDS011;1458;49.728;9.228;2023-05-19T11:42:12;13.37;;;12.97;;
2896;SDS011;1458;49.728;9.228;2023-05-19T11:44:40;13.00;;;12.60;;
2896;SDS011;1458;49.728;9.228;2023-05-19T11:47:11;13.17;;;12.77;;
2896;SDS011;1458;49.728;9.228;2023-05-19T11:49:41;13.10;;;12.70;;
2896;SDS011;1458;49.728;9.228;2023-05-19T11:52:10;13.00;;;12.60;;
2896;SDS011;1458;49.728;9.228;2023-05-19T11:54:38;13.20;;;12.80;;
2896;SDS011;1458;49.728;9.228;2023-05-19T11:57:07;13.50;;;13.10;;
2896;SDS011;1458;49.728;9.228;2023-05-19T11:59:35;12.70;;;12.30;;
2896;SDS011;1458;49.728;9.228;2023-05-19T12:02:18;12.80;;;12.40;;
2896;SDS011;1458;49.728;9.228;2023-05-19T12:04:48;12.60;;;12.20;;
2896;SDS011;1458;49.728;9.228;2023-05-19T12:07:18;13.30;;;12.90;;
2896;SDS011;1458;49.728;9.228;2023-05-19T12:09:48;12.50;;;12.10;;
2896;SDS011;1458;49.728;9.228;2023-05-19T12:12:18;12.80;;;12.40;;
2896;SDS011;1458;49.728;9.228;2023-05-19T12:14:48;12.90;;;12.50;;
2896;SDS011;1458;49.728;9.228;2023-05-19T12:17:17;13.20;;;12.80;;
2896;SDS011;1458;49.728;9.228;2023-05-19T12:19:48;13.10;;;12.70;;
2896;SDS011;1458;49.728;9.228;2023-05-19T12:22:16;13.20;;;12.80;;
2896;SDS011;1458;49.728;9.228;2023-05-19T12:24:45;13.73;;;13.27;;
2896;SDS011;1458;49.728;9.228;2023-05-19T12:27:16;13.60;;;13.20;;
2896;SDS011;1458;49.728;9.228;2023-05-19T12:29:48;12.93;;;12.53;;
2896;SDS011;1458;49.728;9.228;2023-05-19T12:32:17;13.10;;;12.70;;
2896;SDS011;1458;49.728;9.228;2023-05-19T12:34:48;13.73;;;13.23;;
2896;SDS011;1458;49.728;9.228;2023-05-19T12:37:16;13.10;;;12.70;;
2896;SDS011;1458;49.728;9.228;2023-05-19T12:39:43;13.10;;;12.70;;
2896;SDS011;1458;49.728;9.228;2023-05-19T12:42:11;13.20;;;12.80;;
2896;SDS011;1458;49.728;9.228;2023-05-19T12:44:41;12.80;;;12.40;;
2896;SDS011;1458;49.728;9.228;2023-05-19T12:47:11;12.70;;;12.30;;
2896;SDS011;1458;49.728;9.228;2023-05-19T12:49:53;13.13;;;12.73;;
2896;SDS011;1458;49.728;9.228;2023-05-19T12:52:22;13.00;;;12.60;;
2896;SDS011;1458;49.728;9.228;2023-05-19T12:54:49;12.67;;;12.27;;
2896;SDS011;1458;49.728;9.228;2023-05-19T12:57:25;12.70;;;12.30;;
2896;SDS011;1458;49.728;9.228;2023-05-19T12:59:58;12.90;;;12.50;;
2896;SDS011;1458;49.728;9.228;2023-05-19T13:02:27;13.27;;;12.87;;
2896;SDS011;1458;49.728;9.228;2023-05-19T13:04:56;13.30;;;12.90;;
2896;SDS011;1458;49.728;9.228;2023-05-19T13:07:23;13.20;;;12.80;;
2896;SDS011;1458;49.728;9.228;2023-05-19T13:09:51;13.60;;;13.20;;
2896;SDS011;1458;49.728;9.228;2023-05-19T13:12:19;13.20;;;12.80;;
2896;SDS011;1458;49.728;9.228;2023-05-19T13:14:46;12.93;;;12.53;;
2896;SDS011;1458;49.728;9.228;2023-05-19T13:17:13;12.70;;;12.30;;
2896;SDS011;1458;49.728;9.228;2023-05-19T13:19:41;13.00;;;12.60;;
2896;SDS011;1458;49.728;9.228;2023-05-19T13:22:10;13.33;;;12.93;;
2896;SDS011;1458;49.728;9.228;2023-05-19T13:24:37;13.20;;;12.80;;
2896;SDS011;1458;49.728;9.228;2023-05-19T13:27:05;13.17;;;12.77;;
2896;SDS011;1458;49.728;9.228;2023-05-19T13:29:32;13.10;;;12.70;;
2896;SDS011;1458;49.728;9.228;2023-05-19T13:31:59;13.10;;;12.70;;
2896;SDS011;1458;49.728;9.228;2023-05-19T13:34:27;13.20;;;12.80;;
2896;SDS011;1458;49.728;9.228;2023-05-19T13:36:54;13.37;;;12.97;;
2896;SDS011;1458;49.728;9.228;2023-05-19T13:39:23;12.90;;;12.50;;
2896;SDS011;1458;49.728;9.228;2023-05-19T13:41:50;13.87;;;13.37;;
2896;SDS011;1458;49.728;9.228;2023-05-19T13:44:18;13.03;;;12.63;;
2896;SDS011;1458;49.728;9.228;2023-05-19T13:46:45;13.27;;;12.87;;
2896;SDS011;1458;49.728;9.228;2023-05-19T13:49:13;13.50;;;13.10;;
2896;SDS011;1458;49.728;9.228;2023-05-19T13:51:41;13.20;;;12.80;;
2896;SDS011;1458;49.728;9.228;2023-05-19T13:54:08;13.50;;;13.07;;
2896;SDS011;1458;49.728;9.228;2023-05-19T13:56:37;13.20;;;12.80;;
2896;SDS011;1458;49.728;9.228;2023-05-19T13:59:06;12.93;;;12.53;;
2896;SDS011;1458;49.728;9.228;2023-05-19T14:01:33;12.53;;;12.13;;
2896;SDS011;1458;49.728;9.228;2023-05-19T14:04:01;13.17;;;12.77;;
2896;SDS011;1458;49.728;9.228;2023-05-19T14:06:28;13.20;;;12.80;;
2896;SDS011;1458;49.728;9.228;2023-05-19T14:08:56;12.80;;;12.40;;
2896;SDS011;1458;49.728;9.228;2023-05-19T14:11:23;12.97;;;12.57;;
2896;SDS011;1458;49.728;9.228;2023-05-19T14:13:52;12.90;;;12.50;;
2896;SDS011;1458;49.728;9.228;2023-05-19T14:16:20;12.80;;;12.40;;
2896;SDS011;1458;49.728;9.228;2023-05-19T14:18:47;12.90;;;12.50;;
2896;SDS011;1458;49.728;9.228;2023-05-19T14:21:15;13.10;;;12.70;;
2896;SDS011;1458;49.728;9.228;2023-05-19T14:23:42;13.03;;;12.63;;
2896;SDS011;1458;49.728;9.228;2023-05-19T14:26:10;13.70;;;13.30;;
2896;SDS011;1458;49.728;9.228;2023-05-19T14:28:38;12.90;;;12.50;;
2896;SDS011;1458;49.728;9.228;2023-05-19T14:31:09;13.03;;;12.63;;
2896;SDS011;1458;49.728;9.228;2023-05-19T14:33:37;13.07;;;12.67;;
2896;SDS011;1458;49.728;9.228;2023-05-19T14:36:05;12.80;;;12.40;;
2896;SDS011;1458;49.728;9.228;2023-05-19T14:38:33;12.80;;;12.40;;
2896;SDS011;1458;49.728;9.228;2023-05-19T14:41:01;13.17;;;12.77;;
2896;SDS011;1458;49.728;9.228;2023-05-19T14:43:29;13.20;;;12.80;;
2896;SDS011;1458;49.728;9.228;2023-05-19T14:45:56;13.10;;;12.70;;
2896;SDS011;1458;49.728;9.228;2023-05-19T14:48:25;13.50;;;13.10;;
2896;SDS011;1458;49.728;9.228;2023-05-19T14:50:52;13.10;;;12.70;;
2896;SDS011;1458;49.728;9.228;2023-05-19T14:53:20;13.50;;;13.00;;
2896;SDS011;1458;49.728;9.228;2023-05-19T14:55:47;13.20;;;12.80;;
2896;SDS011;1458;49.728;9.228;2023-05-19T14:58:14;13.37;;;12.97;;
2896;SDS011;1458;49.728;9.228;2023-05-19T15:00:42;12.97;;;12.57;;
2896;SDS011;1458;49.728;9.228;2023-05-19T15:03:10;13.10;;;12.70;;
2896;SDS011;1458;49.728;9.228;2023-05-19T15:05:38;13.10;;;12.70;;
2896;SDS011;1458;49.728;9.228;2023-05-19T15:08:06;13.60;;;13.20;;
2896;SDS011;1458;49.728;9.228;2023-05-19T15:10:33;13.20;;;12.80;;
2896;SDS011;1458;49.728;9.228;2023-05-19T15:13:01;13.33;;;12.93;;
2896;SDS011;1458;49.728;9.228;2023-05-19T15:15:28;13.00;;;12.60;;
2896;SDS011;1458;49.728;9.228;2023-05-19T15:17:56;13.13;;;12.73;;
2896;SDS011;1458;49.728;9.228;2023-05-19T15:20:23;13.23;;;12.83;;
2896;SDS011;1458;49.728;9.228;2023-05-19T15:22:52;13.13;;;12.73;;